createdAt,value
2019-03-21T00:01:07.808Z,101834.94
2019-03-21T00:03:33.949Z,101840.96
2019-03-21T00:06:00.316Z,101841.44
2019-03-21T00:08:26.465Z,101835.84
2019-03-21T00:11:30.846Z,101832.62
2019-03-21T00:14:06.968Z,101822.64
2019-03-21T00:16:30.792Z,101820.45
2019-03-21T00:18:56.934Z,101823.45
2019-03-21T00:21:23.100Z,101813.55
2019-03-21T00:23:49.251Z,101818.89
2019-03-21T00:26:15.418Z,101820.44
2019-03-21T00:28:41.583Z,101813.27
2019-03-21T00:31:14.770Z,101809.13
2019-03-21T00:33:45.757Z,101802.92
2019-03-21T00:36:12.013Z,101797.33
2019-03-21T00:38:38.202Z,101801.27
2019-03-21T00:41:04.344Z,101796.31
2019-03-21T00:43:30.520Z,101789.97
2019-03-21T00:45:56.681Z,101783.48
2019-03-21T00:48:22.847Z,101786.02
2019-03-21T00:50:49.002Z,101786.94
2019-03-21T00:53:15.184Z,101786.92
2019-03-21T00:55:51.649Z,101779.69
2019-03-21T00:58:17.832Z,101777.45
2019-03-21T01:00:54.710Z,101774.07
2019-03-21T01:03:20.884Z,101770.45
2019-03-21T01:05:47.013Z,101763.72
2019-03-21T01:08:13.208Z,101759.89
2019-03-21T01:10:39.392Z,101761.40
2019-03-21T01:13:05.763Z,101758.00
2019-03-21T01:15:32.104Z,101760.28
2019-03-21T01:17:58.299Z,101749.66
2019-03-21T01:20:24.501Z,101746.72
2019-03-21T01:22:51.246Z,101744.84
2019-03-21T01:25:32.083Z,101741.31
2019-03-21T01:27:58.230Z,101745.23
2019-03-21T01:30:24.424Z,101745.50
2019-03-21T01:32:50.667Z,101738.40
2019-03-21T01:35:16.846Z,101744.30
2019-03-21T01:37:42.985Z,101746.13
2019-03-21T01:40:14.803Z,101748.89
2019-03-21T01:42:40.937Z,101742.14
2019-03-21T01:45:18.116Z,101737.38
2019-03-21T01:47:44.269Z,101736.43
2019-03-21T01:50:15.352Z,101740.59
2019-03-21T01:52:41.510Z,101732.59
2019-03-21T01:55:11.454Z,101738.70
2019-03-21T01:57:37.669Z,101737.16
2019-03-21T02:00:26.413Z,101733.80
2019-03-21T02:02:55.755Z,101732.05
2019-03-21T02:05:22.224Z,101727.94
2019-03-21T02:07:48.356Z,101725.52
2019-03-21T02:10:16.241Z,101729.25
2019-03-21T02:12:42.494Z,101733.06
2019-03-21T02:15:15.482Z,101730.97
2019-03-21T02:17:42.630Z,101728.03
2019-03-21T02:20:16.442Z,101729.08
2019-03-21T02:22:42.563Z,101733.66
2019-03-21T02:25:19.542Z,101732.66
2019-03-21T02:27:45.680Z,101733.02
2019-03-21T02:30:24.817Z,101734.14
2019-03-21T02:32:56.054Z,101733.53
2019-03-21T02:35:22.233Z,101732.59
2019-03-21T02:37:48.376Z,101741.78
2019-03-21T02:40:24.236Z,101737.38
2019-03-21T02:42:50.370Z,101737.56
2019-03-21T02:45:16.692Z,101734.91
2019-03-21T02:47:43.398Z,101740.66
2019-03-21T02:50:34.581Z,101742.09
2019-03-21T02:53:02.618Z,101745.98
2019-03-21T02:55:28.795Z,101748.93
2019-03-21T02:57:54.931Z,101750.21
2019-03-21T03:00:43.259Z,101752.09
2019-03-21T03:03:09.413Z,101749.93
2019-03-21T03:05:36.873Z,101751.55
2019-03-21T03:08:08.126Z,101746.47
2019-03-21T03:10:45.023Z,101750.38
2019-03-21T03:13:11.175Z,101748.52
2019-03-21T03:15:39.078Z,101747.18
2019-03-21T03:18:16.938Z,101747.97
2019-03-21T03:20:43.187Z,101751.33
2019-03-21T03:23:09.327Z,101756.80
2019-03-21T03:25:35.493Z,101755.71
2019-03-21T03:28:12.846Z,101754.96
2019-03-21T03:30:39.016Z,101766.41
2019-03-21T03:33:05.258Z,101763.81
2019-03-21T03:35:31.354Z,101763.02
2019-03-21T03:37:57.530Z,101766.90
2019-03-21T03:40:48.633Z,101764.26
2019-03-21T03:43:15.136Z,101760.41
2019-03-21T03:45:42.208Z,101772.37
2019-03-21T03:48:08.388Z,101768.75
2019-03-21T03:50:34.576Z,101773.62
2019-03-21T03:53:03.387Z,101773.03
2019-03-21T03:55:29.523Z,101767.97
2019-03-21T03:58:12.342Z,101766.52
2019-03-21T04:00:38.482Z,101768.39
2019-03-21T04:03:04.647Z,101765.03
2019-03-21T04:05:30.781Z,101771.17
2019-03-21T04:07:57.048Z,101764.78
2019-03-21T04:10:43.865Z,101757.28
2019-03-21T04:13:10.014Z,101756.91
2019-03-21T04:15:51.338Z,101754.75
2019-03-21T04:18:04.363Z,101764.16
2019-03-21T04:20:53.422Z,101766.84
2019-03-21T04:23:21.930Z,101771.21
2019-03-21T04:26:02.229Z,101776.07
2019-03-21T04:28:28.437Z,101771.73
2019-03-21T04:30:54.608Z,101772.34
2019-03-21T04:33:22.696Z,101772.82
2019-03-21T04:35:48.875Z,101768.69
2019-03-21T04:38:15.053Z,101768.75
2019-03-21T04:40:41.195Z,101770.41
2019-03-21T04:43:07.356Z,101776.37
2019-03-21T04:45:33.769Z,101765.98
2019-03-21T04:47:59.938Z,101766.59
2019-03-21T04:50:37.879Z,101767.38
2019-03-21T04:53:04.303Z,101768.45
2019-03-21T04:55:30.450Z,101770.38
2019-03-21T04:57:57.025Z,101770.27
2019-03-21T05:00:36.531Z,101767.09
2019-03-21T05:03:21.381Z,101781.41
2019-03-21T05:05:47.533Z,101777.47
2019-03-21T05:08:13.705Z,101783.55
2019-03-21T05:10:39.866Z,101781.51
2019-03-21T05:13:06.021Z,101789.23
2019-03-21T05:15:36.712Z,101789.97
2019-03-21T05:18:08.305Z,101791.78
2019-03-21T05:20:34.439Z,101797.59
2019-03-21T05:23:04.386Z,101802.83
2019-03-21T05:25:30.501Z,101806.04
2019-03-21T05:27:56.759Z,101806.51
2019-03-21T05:30:31.470Z,101808.34
2019-03-21T05:32:57.655Z,101809.96
2019-03-21T05:35:23.792Z,101815.76
2019-03-21T05:37:49.965Z,101818.05
2019-03-21T05:40:19.092Z,101819.03
2019-03-21T05:42:59.744Z,101824.63
2019-03-21T05:45:25.901Z,101827.66
2019-03-21T05:47:52.080Z,101830.88
2019-03-21T05:50:18.249Z,101827.97
2019-03-21T05:52:44.514Z,101829.32
2019-03-21T05:55:11.442Z,101826.70
2019-03-21T05:57:37.688Z,101828.50
2019-03-21T06:00:15.678Z,101829.51
2019-03-21T06:02:41.876Z,101826.61
2019-03-21T06:05:08.048Z,101827.77
2019-03-21T06:07:39.147Z,101831.30
2019-03-21T06:10:11.285Z,101834.05
2019-03-21T06:12:44.511Z,101835.24
2019-03-21T06:15:21.732Z,101838.80
2019-03-21T06:18:12.796Z,101838.80
2019-03-21T06:21:19.332Z,101834.04
2019-03-21T06:23:57.282Z,101838.66
2019-03-21T06:26:53.008Z,101838.25
2019-03-21T06:29:21.074Z,101841.19
2019-03-21T06:31:47.221Z,101834.62
2019-03-21T06:34:13.381Z,101830.61
2019-03-21T06:36:39.506Z,101829.17
2019-03-21T06:39:07.984Z,101830.70
2019-03-21T06:41:34.431Z,101833.59
2019-03-21T06:44:00.607Z,101833.64
2019-03-21T06:46:26.756Z,101834.28
2019-03-21T06:48:52.907Z,101831.54
2019-03-21T06:51:19.097Z,101820.66
2019-03-21T06:53:45.246Z,101826.70
2019-03-21T06:56:11.467Z,101820.49
2019-03-21T06:58:37.669Z,101818.20
2019-03-21T07:01:03.875Z,101821.41
2019-03-21T07:03:30.019Z,101823.43
2019-03-21T07:05:56.186Z,101822.52
2019-03-21T07:08:22.343Z,101819.34
2019-03-21T07:10:48.526Z,101820.45
2019-03-21T07:13:14.802Z,101812.58
2019-03-21T07:15:41.158Z,101812.36
2019-03-21T07:18:07.297Z,101807.49
2019-03-21T07:20:33.480Z,101807.09
2019-03-21T07:22:59.622Z,101806.10
2019-03-21T07:25:25.808Z,101798.16
2019-03-21T07:27:51.970Z,101803.77
2019-03-21T07:30:18.126Z,101808.42
2019-03-21T07:32:44.292Z,101800.68
2019-03-21T07:35:10.942Z,101796.80
2019-03-21T07:37:37.095Z,101802.87
2019-03-21T07:40:10.728Z,101803.11
2019-03-21T07:42:36.882Z,101804.33
2019-03-21T07:45:06.346Z,101800.43
2019-03-21T07:47:32.525Z,101805.03
2019-03-21T07:49:58.682Z,101805.55
2019-03-21T07:52:24.856Z,101797.98
2019-03-21T07:54:51.606Z,101806.52
2019-03-21T07:57:17.835Z,101798.54
2019-03-21T07:59:44.267Z,101798.66
2019-03-21T08:02:10.452Z,101808.20
2019-03-21T08:04:37.250Z,101806.98
2019-03-21T08:07:03.378Z,101816.98
2019-03-21T08:09:29.545Z,101803.72
2019-03-21T08:11:55.703Z,101812.52
2019-03-21T08:14:21.869Z,101808.14
2019-03-21T08:16:48.897Z,101812.19
2019-03-21T08:19:15.358Z,101810.63
2019-03-21T08:21:41.515Z,101819.64
2019-03-21T08:24:07.673Z,101817.89
2019-03-21T08:26:33.831Z,101821.95
2019-03-21T08:28:59.985Z,101821.88
2019-03-21T08:31:26.170Z,101830.64
2019-03-21T08:33:52.314Z,101834.13
2019-03-21T08:36:18.527Z,101831.27
2019-03-21T08:38:44.692Z,101827.84
2019-03-21T08:41:10.955Z,101825.92
2019-03-21T08:43:37.420Z,101818.70
2019-03-21T08:46:03.872Z,101819.13
2019-03-21T08:48:30.051Z,101824.44
2019-03-21T08:51:07.325Z,101821.29
2019-03-21T08:53:24.254Z,101826.35
2019-03-21T08:55:50.506Z,101827.78
2019-03-21T08:58:17.007Z,101826.09
2019-03-21T09:00:43.213Z,101830.46
2019-03-21T09:03:09.709Z,101823.34
2019-03-21T09:05:35.859Z,101822.12
2019-03-21T09:08:02.020Z,101817.94
2019-03-21T09:10:28.406Z,101824.26
2019-03-21T09:12:54.572Z,101825.16
2019-03-21T09:15:20.745Z,101828.14
2019-03-21T09:17:46.896Z,101826.06
2019-03-21T09:20:13.042Z,101821.23
2019-03-21T09:22:39.222Z,101822.20
2019-03-21T09:25:06.163Z,101819.95
2019-03-21T09:27:32.477Z,101820.67
2019-03-21T09:29:58.602Z,101817.33
2019-03-21T09:32:24.874Z,101813.37
2019-03-21T09:34:51.094Z,101820.08
2019-03-21T09:37:17.250Z,101823.92
2019-03-21T09:39:43.397Z,101823.17
2019-03-21T09:42:09.574Z,101815.73
2019-03-21T09:44:35.730Z,101819.18
2019-03-21T09:47:02.119Z,101814.81
2019-03-21T09:49:28.336Z,101814.48
2019-03-21T09:51:54.731Z,101817.97
2019-03-21T09:54:20.917Z,101812.98
2019-03-21T09:56:47.071Z,101816.36
2019-03-21T09:59:13.342Z,101814.94
2019-03-21T10:01:39.499Z,101813.02
2019-03-21T10:04:05.658Z,101810.86
2019-03-21T10:06:31.794Z,101801.21
2019-03-21T10:08:57.978Z,101804.34
2019-03-21T10:11:24.124Z,101801.07
2019-03-21T10:13:50.555Z,101799.66
2019-03-21T10:16:16.697Z,101795.02
2019-03-21T10:18:43.222Z,101795.23
2019-03-21T10:21:09.763Z,101797.63
2019-03-21T10:23:35.932Z,101793.45
2019-03-21T10:26:02.080Z,101794.36
2019-03-21T10:28:28.247Z,101796.16
2019-03-21T10:30:57.117Z,101798.33
2019-03-21T10:33:22.585Z,101800.13
2019-03-21T10:35:49.019Z,101790.84
2019-03-21T10:38:15.230Z,101786.15
2019-03-21T10:40:41.369Z,101790.06
2019-03-21T10:43:07.524Z,101787.08
2019-03-21T10:45:34.090Z,101786.15
2019-03-21T10:48:00.235Z,101785.25
2019-03-21T10:50:36.102Z,101780.23
2019-03-21T10:53:03.473Z,101785.17
2019-03-21T10:55:29.635Z,101781.78
2019-03-21T10:57:55.889Z,101777.99
2019-03-21T11:00:22.434Z,101776.47
2019-03-21T11:02:48.585Z,101776.30
2019-03-21T11:05:15.083Z,101771.91
2019-03-21T11:07:41.241Z,101769.85
2019-03-21T11:10:07.747Z,101766.26
2019-03-21T11:12:33.926Z,101763.66
2019-03-21T11:15:00.337Z,101759.67
2019-03-21T11:17:26.538Z,101765.77
2019-03-21T11:19:52.701Z,101762.88
2019-03-21T11:22:18.841Z,101760.62
2019-03-21T11:24:45.037Z,101752.37
2019-03-21T11:27:11.189Z,101748.42
2019-03-21T11:29:37.357Z,101745.02
2019-03-21T11:32:03.508Z,101741.57
2019-03-21T11:34:29.904Z,101737.05
2019-03-21T11:36:56.108Z,101741.06
2019-03-21T11:39:22.290Z,101729.95
2019-03-21T11:41:48.457Z,101727.40
2019-03-21T11:44:14.597Z,101718.44
2019-03-21T11:46:40.781Z,101719.82
2019-03-21T11:49:06.911Z,101712.92
2019-03-21T11:51:33.067Z,101705.49
2019-03-21T11:53:59.227Z,101702.94
2019-03-21T11:56:25.396Z,101700.61
2019-03-21T11:58:51.546Z,101698.34
2019-03-21T12:01:17.727Z,101696.08
2019-03-21T12:03:43.954Z,101688.98
2019-03-21T12:06:10.114Z,101683.86
2019-03-21T12:08:36.252Z,101687.87
2019-03-21T12:11:02.530Z,101684.09
2019-03-21T12:13:28.677Z,101682.02
2019-03-21T12:15:55.200Z,101671.84
2019-03-21T12:18:21.330Z,101674.91
2019-03-21T12:20:47.495Z,101673.49
2019-03-21T12:23:14.008Z,101670.06
2019-03-21T12:25:40.170Z,101673.22
2019-03-21T12:28:06.336Z,101680.27
2019-03-21T12:30:38.134Z,101669.88
2019-03-21T12:33:04.654Z,101663.92
2019-03-21T12:35:30.819Z,101665.94
2019-03-21T12:37:56.956Z,101662.27
2019-03-21T12:40:23.091Z,101659.23
2019-03-21T12:42:49.265Z,101656.59
2019-03-21T12:45:15.417Z,101652.33
2019-03-21T12:47:41.589Z,101653.51
2019-03-21T12:50:07.929Z,101649.84
2019-03-21T12:55:05.354Z,101644.31
2019-03-21T12:57:31.617Z,101643.13
2019-03-21T12:59:57.874Z,101640.34
2019-03-21T13:04:52.428Z,101631.69
2019-03-21T13:07:13.116Z,101641.06
2019-03-21T13:07:13.145Z,101637.88
2019-03-21T13:07:19.269Z,101633.92
2019-03-21T13:09:45.909Z,101630.17
2019-03-21T13:12:12.087Z,101630.78
2019-03-21T13:14:40.371Z,101625.67
2019-03-21T13:17:06.533Z,101630.33
2019-03-21T13:19:32.699Z,101625.91
2019-03-21T13:21:59.110Z,101621.41
2019-03-21T13:24:25.254Z,101618.42
2019-03-21T13:26:51.418Z,101617.92
2019-03-21T13:29:17.575Z,101616.36
2019-03-21T13:31:43.738Z,101617.53
2019-03-21T13:34:09.897Z,101614.26
2019-03-21T13:36:36.059Z,101614.38
2019-03-21T13:39:05.443Z,101608.72
2019-03-21T13:41:31.593Z,101608.98
2019-03-21T13:43:57.767Z,101605.08
2019-03-21T13:46:23.942Z,101604.70
2019-03-21T13:48:50.114Z,101596.91
2019-03-21T13:51:16.252Z,101590.94
2019-03-21T13:53:42.412Z,101585.02
2019-03-21T13:56:08.549Z,101583.15
2019-03-21T13:58:34.721Z,101584.86
2019-03-21T14:01:00.918Z,101571.72
2019-03-21T14:03:27.080Z,101573.00
2019-03-21T14:05:55.218Z,101575.10
2019-03-21T14:08:21.292Z,101569.31
2019-03-21T14:10:47.542Z,101562.30
2019-03-21T14:13:13.782Z,101565.11
2019-03-21T14:15:39.894Z,101566.00
2019-03-21T14:18:06.281Z,101559.52
2019-03-21T14:20:32.433Z,101559.70
2019-03-21T14:22:58.595Z,101560.81
2019-03-21T14:25:24.738Z,101556.33
2019-03-21T14:27:50.870Z,101553.75
2019-03-21T14:30:17.051Z,101553.83
2019-03-21T14:32:43.616Z,101545.94
2019-03-21T14:35:10.059Z,101543.00
2019-03-21T14:37:36.639Z,101541.06
2019-03-21T14:40:09.986Z,101540.47
2019-03-21T14:42:36.174Z,101545.14
2019-03-21T14:45:05.812Z,101539.32
2019-03-21T14:47:36.334Z,101541.91
2019-03-21T14:50:00.042Z,101536.70
2019-03-21T14:52:26.181Z,101534.73
2019-03-21T14:54:52.320Z,101536.61
2019-03-21T14:57:18.488Z,101533.27
2019-03-21T14:59:44.678Z,101530.14
2019-03-21T15:02:10.820Z,101527.02
2019-03-21T15:04:37.104Z,101532.61
2019-03-21T15:07:03.245Z,101535.02
2019-03-21T15:09:29.404Z,101533.87
2019-03-21T15:11:55.627Z,101531.52
2019-03-21T15:14:22.250Z,101532.05
2019-03-21T15:16:48.431Z,101536.93
2019-03-21T15:19:14.838Z,101538.00
2019-03-21T15:21:40.994Z,101533.98
2019-03-21T15:24:07.162Z,101535.04
2019-03-21T15:26:33.361Z,101530.87
2019-03-21T15:28:59.487Z,101531.05
2019-03-21T15:31:25.655Z,101531.09
2019-03-21T15:33:51.832Z,101532.28
2019-03-21T15:36:18.030Z,101539.37
2019-03-21T15:38:44.190Z,101542.91
2019-03-21T15:41:10.746Z,101543.62
2019-03-21T15:43:36.899Z,101540.41
2019-03-21T15:46:03.065Z,101541.27
2019-03-21T15:48:29.212Z,101536.39
2019-03-21T15:51:04.576Z,101536.25
2019-03-21T15:53:23.443Z,101535.61
2019-03-21T15:55:49.652Z,101534.78
2019-03-21T15:58:15.762Z,101536.80
2019-03-21T16:00:42.913Z,101532.73
2019-03-21T16:03:11.626Z,101535.09
2019-03-21T16:05:40.810Z,101533.06
2019-03-21T16:08:08.844Z,101533.72
2019-03-21T16:10:35.662Z,101533.55
2019-03-21T16:13:01.909Z,101531.38
2019-03-21T16:15:28.080Z,101532.88
2019-03-21T16:17:54.227Z,101528.69
2019-03-21T16:20:20.379Z,101531.00
2019-03-21T16:22:46.514Z,101530.66
2019-03-21T16:25:12.699Z,101537.02
2019-03-21T16:27:38.844Z,101531.44
2019-03-21T16:30:07.988Z,101526.56
2019-03-21T16:32:34.147Z,101527.70
2019-03-21T16:35:00.499Z,101527.37
2019-03-21T16:37:27.031Z,101530.69
2019-03-21T16:39:53.227Z,101525.47
2019-03-21T16:42:19.698Z,101526.62
2019-03-21T16:44:45.843Z,101519.06
2019-03-21T16:47:12.015Z,101520.91
2019-03-21T16:49:38.158Z,101519.04
2019-03-21T16:52:04.338Z,101520.88
2019-03-21T16:54:30.515Z,101524.84
2019-03-21T16:56:57.009Z,101525.97
2019-03-21T16:59:23.174Z,101520.72
2019-03-21T17:01:49.418Z,101523.03
2019-03-21T17:04:15.572Z,101528.02
2019-03-21T17:06:41.737Z,101530.48
2019-03-21T17:09:07.893Z,101533.62
2019-03-21T17:11:34.111Z,101533.06
2019-03-21T17:14:00.510Z,101536.23
2019-03-21T17:18:53.022Z,101545.69
2019-03-21T17:21:19.180Z,101546.13
2019-03-21T17:23:45.370Z,101548.11
2019-03-21T17:26:11.509Z,101550.91
2019-03-21T17:28:37.646Z,101557.20
2019-03-21T17:31:03.820Z,101558.67
2019-03-21T17:33:30.005Z,101555.92
2019-03-21T17:35:56.152Z,101558.05
2019-03-21T17:38:22.310Z,101557.48
2019-03-21T17:40:48.574Z,101562.75
2019-03-21T17:43:15.074Z,101564.19
2019-03-21T17:45:41.223Z,101563.92
2019-03-21T17:48:07.415Z,101563.31
2019-03-21T17:50:33.558Z,101565.41
2019-03-21T17:52:59.734Z,101571.34
2019-03-21T17:55:25.871Z,101574.77
2019-03-21T17:57:52.051Z,101577.83
2019-03-21T18:00:22.919Z,101580.59
2019-03-21T18:02:49.294Z,101586.65
2019-03-21T18:05:15.622Z,101583.52
2019-03-21T18:07:41.794Z,101583.55
2019-03-21T18:10:30.551Z,101581.78
2019-03-21T18:12:56.864Z,101585.98
2019-03-21T18:15:23.326Z,101590.23
2019-03-21T18:17:49.500Z,101595.56
2019-03-21T18:20:15.882Z,101599.26
2019-03-21T18:22:42.277Z,101595.30
2019-03-21T18:25:08.534Z,101594.95
2019-03-21T18:27:34.682Z,101597.00
2019-03-21T18:30:01.358Z,101599.22
2019-03-21T18:32:27.511Z,101603.72
2019-03-21T18:34:53.668Z,101603.56
2019-03-21T18:37:19.824Z,101605.55
2019-03-21T18:39:46.007Z,101601.41
2019-03-21T18:42:12.175Z,101600.03
2019-03-21T18:44:38.325Z,101594.97
2019-03-21T18:47:04.469Z,101594.66
2019-03-21T18:49:30.652Z,101594.65
2019-03-21T18:51:56.802Z,101600.34
2019-03-21T18:54:23.003Z,101603.53
2019-03-21T18:56:49.228Z,101603.89
2019-03-21T18:59:15.759Z,101602.28
2019-03-21T19:01:42.626Z,101595.92
2019-03-21T19:04:13.242Z,101599.94
2019-03-21T19:06:39.404Z,101604.95
2019-03-21T19:09:06.307Z,101604.47
2019-03-21T19:11:32.509Z,101600.43
2019-03-21T19:13:58.750Z,101605.77
2019-03-21T19:16:25.249Z,101604.05
2019-03-21T19:18:51.431Z,101604.16
2019-03-21T19:21:17.622Z,101601.27
2019-03-21T19:23:43.943Z,101604.98
2019-03-21T19:26:10.320Z,101601.96
2019-03-21T19:28:36.476Z,101603.23
2019-03-21T19:31:02.869Z,101600.17
2019-03-21T19:33:29.399Z,101605.78
2019-03-21T19:35:55.644Z,101603.27
2019-03-21T19:38:23.801Z,101596.94
2019-03-21T19:40:49.918Z,101602.63
2019-03-21T19:43:16.069Z,101601.61
2019-03-21T19:45:42.258Z,101605.14
2019-03-21T19:48:08.395Z,101609.31
2019-03-21T19:50:34.619Z,101606.20
2019-03-21T19:53:00.805Z,101609.24
2019-03-21T19:55:31.102Z,101612.11
2019-03-21T19:57:55.349Z,101615.19
2019-03-21T20:00:22.668Z,101611.97
2019-03-21T20:02:49.651Z,101619.95
2019-03-21T20:05:22.891Z,101619.82
2019-03-21T20:07:49.057Z,101626.06
2019-03-21T20:10:19.155Z,101622.94
2019-03-21T20:12:45.315Z,101626.62
2019-03-21T20:15:21.217Z,101626.33
2019-03-21T20:17:47.362Z,101622.63
2019-03-21T20:20:15.507Z,101623.27
2019-03-21T20:22:41.676Z,101625.33
2019-03-21T20:25:09.322Z,101631.38
2019-03-21T20:27:36.147Z,101628.58
2019-03-21T20:30:21.102Z,101625.24
2019-03-21T20:32:47.273Z,101620.45
2019-03-21T20:35:13.793Z,101619.81
2019-03-21T20:37:39.957Z,101620.14
2019-03-21T20:40:10.614Z,101621.84
2019-03-21T20:42:36.800Z,101616.53
2019-03-21T20:45:06.062Z,101616.81
2019-03-21T20:47:35.033Z,101618.81
2019-03-21T20:50:00.929Z,101621.80
2019-03-21T20:52:27.103Z,101621.48
2019-03-21T20:54:53.363Z,101616.36
2019-03-21T20:57:19.559Z,101618.66
2019-03-21T20:59:45.714Z,101614.53
2019-03-21T21:02:12.081Z,101620.55
2019-03-21T21:04:38.287Z,101622.30
2019-03-21T21:07:04.842Z,101618.41
2019-03-21T21:09:30.985Z,101619.77
2019-03-21T21:11:57.184Z,101619.77
2019-03-21T21:14:23.326Z,101623.75
2019-03-21T21:16:49.765Z,101626.80
2019-03-21T21:19:22.393Z,101622.34
2019-03-21T21:21:48.572Z,101622.11
2019-03-21T21:24:16.709Z,101619.42
2019-03-21T21:26:43.786Z,101621.84
2019-03-21T21:29:09.926Z,101621.13
2019-03-21T21:31:36.419Z,101621.42
2019-03-21T21:34:03.243Z,101621.02
2019-03-21T21:36:29.418Z,101620.54
2019-03-21T21:38:55.706Z,101614.62
2019-03-21T21:41:21.855Z,101618.27
2019-03-21T21:43:48.049Z,101624.30
2019-03-21T21:46:14.208Z,101618.73
2019-03-21T21:48:40.375Z,101618.20
2019-03-21T21:51:06.542Z,101622.03
2019-03-21T21:53:32.724Z,101620.73
2019-03-21T21:55:58.871Z,101619.30
2019-03-21T21:58:25.048Z,101624.17
2019-03-21T22:00:51.556Z,101626.37
2019-03-21T22:03:17.977Z,101619.75
2019-03-21T22:05:44.411Z,101623.35
2019-03-21T22:08:10.590Z,101631.70
2019-03-21T22:10:36.750Z,101634.70
2019-03-21T22:13:03.072Z,101631.22
2019-03-21T22:15:29.495Z,101630.09
2019-03-21T22:17:55.758Z,101630.97
2019-03-21T22:20:22.231Z,101635.38
2019-03-21T22:22:48.365Z,101634.67
2019-03-21T22:25:14.711Z,101639.82
2019-03-21T22:27:41.243Z,101639.75
2019-03-21T22:30:14.054Z,101642.31
2019-03-21T22:32:40.321Z,101635.23
2019-03-21T22:35:06.773Z,101636.36
2019-03-21T22:37:32.926Z,101638.27
2019-03-21T22:39:59.363Z,101641.66
2019-03-21T22:42:25.570Z,101646.70
2019-03-21T22:44:52.063Z,101644.72
2019-03-21T22:47:18.511Z,101645.62
2019-03-21T22:49:44.703Z,101646.53
2019-03-21T22:52:10.860Z,101641.02
2019-03-21T22:54:37.054Z,101642.14
2019-03-21T22:57:03.642Z,101636.76
2019-03-21T22:59:29.827Z,101635.17
2019-03-21T23:01:56.663Z,101634.91
2019-03-21T23:04:22.824Z,101629.97
2019-03-21T23:06:48.969Z,101631.09
2019-03-21T23:09:15.171Z,101638.33
2019-03-21T23:11:41.339Z,101634.04
2019-03-21T23:14:07.525Z,101638.49
2019-03-21T23:16:33.673Z,101637.06
2019-03-21T23:19:00.111Z,101638.08
2019-03-21T23:21:26.247Z,101637.52
2019-03-21T23:23:52.525Z,101636.53
2019-03-21T23:26:18.643Z,101640.47
2019-03-21T23:28:44.828Z,101634.96
2019-03-21T23:31:11.249Z,101631.98
2019-03-21T23:33:37.401Z,101630.86
2019-03-21T23:36:03.597Z,101628.73
2019-03-21T23:38:29.749Z,101630.08
2019-03-21T23:40:55.932Z,101636.32
2019-03-21T23:43:22.184Z,101635.20
2019-03-21T23:45:48.355Z,101635.84
2019-03-21T23:48:14.499Z,101636.70
2019-03-21T23:50:40.661Z,101634.34
2019-03-21T23:53:06.814Z,101637.63
2019-03-21T23:55:32.981Z,101641.41
2019-03-21T23:57:59.204Z,101646.38
